createdAt,value
2017-10-03T00:00:22.565Z,21.6
2017-10-03T00:01:30.651Z,21.6
2017-10-03T00:02:38.739Z,21.6
2017-10-03T00:03:46.828Z,21.6
2017-10-03T00:04:54.913Z,21.5
2017-10-03T00:06:03.002Z,21.6
2017-10-03T00:07:11.088Z,21.5
2017-10-03T00:08:19.175Z,21.5
2017-10-03T00:09:27.261Z,21.6
2017-10-03T00:10:35.347Z,21.5
2017-10-03T00:11:43.435Z,21.5
2017-10-03T00:12:51.525Z,21.5
2017-10-03T00:13:59.610Z,21.5
2017-10-03T00:15:07.698Z,21.6
2017-10-03T00:16:15.785Z,21.5
2017-10-03T00:17:23.871Z,21.5
2017-10-03T00:18:31.958Z,21.6
2017-10-03T00:19:40.041Z,21.5
2017-10-03T00:20:48.129Z,21.5
2017-10-03T00:21:56.218Z,21.5
2017-10-03T00:23:04.303Z,21.5
2017-10-03T00:24:12.392Z,21.6
2017-10-03T00:25:20.596Z,21.5
2017-10-03T00:26:28.567Z,21.6
2017-10-03T00:27:36.653Z,21.5
2017-10-03T00:28:44.743Z,21.6
2017-10-03T00:29:52.823Z,21.5
2017-10-03T00:31:00.914Z,21.6
2017-10-03T00:32:09.008Z,21.5
2017-10-03T00:33:17.094Z,21.5
2017-10-03T00:34:25.183Z,21.6
2017-10-03T00:35:33.268Z,21.5
2017-10-03T00:36:41.524Z,21.5
2017-10-03T00:37:49.603Z,21.6
2017-10-03T00:38:57.694Z,21.5
2017-10-03T00:40:05.803Z,21.6
2017-10-03T00:41:13.874Z,21.6
2017-10-03T00:42:21.960Z,21.5
2017-10-03T00:43:30.047Z,21.5
2017-10-03T00:44:38.134Z,21.5
2017-10-03T00:45:46.221Z,21.5
2017-10-03T00:46:54.310Z,21.6
2017-10-03T00:48:02.398Z,21.5
2017-10-03T00:49:10.485Z,21.5
2017-10-03T00:50:18.571Z,21.5
2017-10-03T00:51:26.659Z,21.5
2017-10-03T00:52:34.747Z,21.5
2017-10-03T00:53:42.835Z,21.5
2017-10-03T00:54:50.919Z,21.5
2017-10-03T00:55:59.006Z,21.5
2017-10-03T00:57:07.091Z,21.5
2017-10-03T00:58:15.179Z,21.5
2017-10-03T00:59:23.279Z,21.5
2017-10-03T01:00:31.365Z,21.5
2017-10-03T01:01:39.447Z,21.6
2017-10-03T01:02:47.541Z,21.6
2017-10-03T01:03:55.619Z,21.4
2017-10-03T01:05:03.707Z,21.6
2017-10-03T01:06:11.857Z,21.6
2017-10-03T01:07:19.880Z,21.5
2017-10-03T01:08:28.008Z,21.5
2017-10-03T01:09:36.055Z,21.5
2017-10-03T01:10:44.142Z,21.4
2017-10-03T01:11:52.232Z,21.5
2017-10-03T01:13:00.319Z,21.5
2017-10-03T01:14:08.416Z,21.4
2017-10-03T01:15:16.505Z,21.5
2017-10-03T01:16:24.592Z,21.5
2017-10-03T01:17:32.678Z,21.5
2017-10-03T01:18:40.770Z,21.4
2017-10-03T01:19:48.852Z,21.5
2017-10-03T01:20:56.940Z,21.5
2017-10-03T01:22:05.029Z,21.4
2017-10-03T01:23:13.121Z,21.4
2017-10-03T01:24:21.203Z,21.4
2017-10-03T01:25:29.293Z,21.5
2017-10-03T01:26:37.378Z,21.4
2017-10-03T01:27:45.465Z,21.4
2017-10-03T01:28:53.551Z,21.4
2017-10-03T01:30:01.631Z,21.4
2017-10-03T01:31:09.723Z,21.4
2017-10-03T01:32:17.821Z,21.4
2017-10-03T01:33:25.907Z,21.4
2017-10-03T01:34:33.995Z,21.4
2017-10-03T01:35:42.078Z,21.5
2017-10-03T01:36:50.193Z,21.4
2017-10-03T01:37:58.281Z,21.4
2017-10-03T01:39:06.363Z,21.4
2017-10-03T01:40:14.450Z,21.5
2017-10-03T01:41:22.536Z,21.4
2017-10-03T01:42:30.622Z,21.4
2017-10-03T01:43:38.711Z,21.4
2017-10-03T01:44:46.807Z,21.4
2017-10-03T01:45:54.895Z,21.4
2017-10-03T01:47:02.980Z,21.4
2017-10-03T01:48:11.068Z,21.4
2017-10-03T01:49:19.163Z,21.4
2017-10-03T01:50:27.250Z,21.4
2017-10-03T01:51:35.337Z,21.4
2017-10-03T01:52:43.430Z,21.3
2017-10-03T01:53:51.511Z,21.4
2017-10-03T01:54:59.599Z,21.4
2017-10-03T01:56:07.685Z,21.4
2017-10-03T01:57:15.772Z,21.4
2017-10-03T01:58:23.861Z,21.4
2017-10-03T01:59:31.954Z,21.3
2017-10-03T02:00:40.041Z,21.4
2017-10-03T02:01:48.128Z,21.4
2017-10-03T02:02:56.218Z,21.4
2017-10-03T02:04:04.307Z,21.4
2017-10-03T02:05:12.391Z,21.3
2017-10-03T02:06:20.483Z,21.3
2017-10-03T02:07:28.567Z,21.3
2017-10-03T02:08:36.653Z,21.3
2017-10-03T02:09:44.745Z,21.3
2017-10-03T02:10:52.830Z,21.4
2017-10-03T02:12:00.915Z,21.3
2017-10-03T02:13:09.002Z,21.4
2017-10-03T02:14:17.087Z,21.3
2017-10-03T02:15:25.176Z,21.4
2017-10-03T02:16:33.262Z,21.3
2017-10-03T02:17:41.347Z,21.3
2017-10-03T02:18:49.434Z,21.3
2017-10-03T02:19:57.521Z,21.3
2017-10-03T02:21:05.610Z,21.3
2017-10-03T02:22:13.695Z,21.4
2017-10-03T02:23:21.780Z,21.4
2017-10-03T02:24:29.868Z,21.4
2017-10-03T02:25:37.953Z,21.3
2017-10-03T02:26:46.050Z,21.3
2017-10-03T02:27:54.127Z,21.3
2017-10-03T02:29:02.223Z,21.3
2017-10-03T02:30:10.325Z,21.4
2017-10-03T02:31:18.411Z,21.3
2017-10-03T02:32:26.502Z,21.3
2017-10-03T02:33:34.585Z,21.3
2017-10-03T02:34:42.671Z,21.3
2017-10-03T02:35:50.755Z,21.3
2017-10-03T02:36:58.841Z,21.3
2017-10-03T02:38:06.927Z,21.3
2017-10-03T02:39:15.091Z,21.3
2017-10-03T02:40:23.102Z,21.4
2017-10-03T02:41:31.190Z,21.3
2017-10-03T02:42:39.276Z,21.3
2017-10-03T02:43:47.362Z,21.3
2017-10-03T02:44:55.471Z,21.3
2017-10-03T02:46:03.568Z,21.3
2017-10-03T02:47:11.652Z,21.3
2017-10-03T02:48:19.743Z,21.2
2017-10-03T02:49:27.828Z,21.3
2017-10-03T02:50:35.915Z,21.2
2017-10-03T02:51:44.001Z,21.2
2017-10-03T02:52:52.095Z,21.2
2017-10-03T02:54:00.180Z,21.3
2017-10-03T02:55:08.274Z,21.3
2017-10-03T02:56:16.353Z,21.2
2017-10-03T02:57:24.442Z,21.2
2017-10-03T02:58:32.526Z,21.3
2017-10-03T02:59:40.613Z,21.2
2017-10-03T03:00:48.700Z,21.2
2017-10-03T03:01:56.787Z,21.2
2017-10-03T03:03:04.874Z,21.2
2017-10-03T03:04:12.966Z,21.3
2017-10-03T03:05:21.054Z,21.2
2017-10-03T03:06:29.136Z,21.2
2017-10-03T03:07:37.219Z,21.2
2017-10-03T03:08:45.307Z,21.2
2017-10-03T03:09:53.399Z,21.2
2017-10-03T03:11:01.487Z,21.2
2017-10-03T03:12:09.574Z,21.1
2017-10-03T03:13:17.662Z,21.2
2017-10-03T03:14:25.748Z,21.1
2017-10-03T03:15:33.833Z,21.2
2017-10-03T03:16:41.919Z,21.1
2017-10-03T03:17:50.005Z,21.2
2017-10-03T03:18:58.090Z,21.2
2017-10-03T03:20:06.210Z,21.2
2017-10-03T03:21:14.301Z,21.2
2017-10-03T03:22:22.385Z,21.3
2017-10-03T03:23:30.470Z,21.2
2017-10-03T03:24:38.558Z,21.1
2017-10-03T03:25:46.661Z,21.2
2017-10-03T03:26:54.733Z,21.2
2017-10-03T03:28:02.818Z,21.2
2017-10-03T03:29:10.903Z,21.2
2017-10-03T03:30:18.990Z,21.2
2017-10-03T03:31:27.079Z,21.1
2017-10-03T03:32:35.162Z,21.1
2017-10-03T03:33:43.251Z,21.1
2017-10-03T03:34:51.336Z,21.1
2017-10-03T03:35:59.423Z,21.2
2017-10-03T03:37:07.508Z,21.2
2017-10-03T03:38:15.595Z,21.2
2017-10-03T03:39:23.686Z,21.1
2017-10-03T03:40:31.766Z,21.0
2017-10-03T03:41:39.852Z,21.1
2017-10-03T03:42:47.948Z,21.0
2017-10-03T03:43:56.024Z,21.1
2017-10-03T03:45:04.113Z,21.1
2017-10-03T03:46:12.198Z,21.1
2017-10-03T03:47:20.287Z,21.1
2017-10-03T03:48:28.371Z,21.0
2017-10-03T03:49:36.456Z,21.1
2017-10-03T03:50:44.549Z,21.0
2017-10-03T03:51:52.788Z,21.1
2017-10-03T03:53:00.722Z,21.0
2017-10-03T03:54:08.810Z,21.1
2017-10-03T03:55:16.916Z,21.1
2017-10-03T03:56:24.984Z,21.1
2017-10-03T03:57:33.104Z,21.1
2017-10-03T03:58:41.182Z,21.1
2017-10-03T03:59:49.269Z,21.1
2017-10-03T04:00:57.355Z,21.1
2017-10-03T04:02:05.441Z,21.0
2017-10-03T04:03:13.534Z,21.1
2017-10-03T04:04:21.620Z,21.1
2017-10-03T04:05:29.708Z,21.1
2017-10-03T04:06:37.794Z,21.1
2017-10-03T04:07:45.882Z,21.0
2017-10-03T04:08:53.973Z,21.0
2017-10-03T04:10:02.051Z,21.0
2017-10-03T04:11:10.159Z,21.0
2017-10-03T04:12:18.234Z,21.1
2017-10-03T04:13:26.318Z,21.1
2017-10-03T04:14:34.403Z,21.0
2017-10-03T04:15:42.491Z,21.0
2017-10-03T04:16:50.576Z,21.0
2017-10-03T04:17:58.680Z,21.1
2017-10-03T04:19:06.745Z,21.0
2017-10-03T04:20:14.835Z,21.0
2017-10-03T04:21:22.923Z,21.0
2017-10-03T04:22:31.011Z,21.0
2017-10-03T04:23:39.102Z,21.1
2017-10-03T04:24:47.182Z,21.0
2017-10-03T04:25:55.270Z,20.9
2017-10-03T04:27:03.354Z,21.0
2017-10-03T04:28:11.439Z,21.0
2017-10-03T04:29:19.534Z,21.1
2017-10-03T04:30:27.616Z,21.0
2017-10-03T04:31:35.702Z,21.0
2017-10-03T04:32:43.797Z,20.9
2017-10-03T04:33:51.877Z,21.0
2017-10-03T04:34:59.959Z,21.1
2017-10-03T04:36:08.048Z,21.0
2017-10-03T04:37:16.134Z,21.0
2017-10-03T04:38:24.220Z,21.0
2017-10-03T04:39:32.306Z,21.0
2017-10-03T04:40:40.392Z,21.0
2017-10-03T04:41:48.478Z,21.0
2017-10-03T04:42:56.565Z,21.0
2017-10-03T04:44:04.658Z,21.0
2017-10-03T04:45:12.740Z,20.9
2017-10-03T04:46:20.827Z,20.9
2017-10-03T04:47:28.913Z,20.9
2017-10-03T04:48:37.001Z,20.9
2017-10-03T04:49:45.087Z,21.0
2017-10-03T04:50:53.174Z,20.9
2017-10-03T04:52:01.262Z,20.9
2017-10-03T04:53:09.371Z,21.0
2017-10-03T04:54:17.434Z,21.0
2017-10-03T04:55:25.518Z,21.1
2017-10-03T04:56:33.606Z,20.9
2017-10-03T04:57:41.692Z,20.9
2017-10-03T04:58:49.776Z,20.9
2017-10-03T04:59:57.868Z,20.9
2017-10-03T05:01:05.949Z,20.9
2017-10-03T05:02:14.034Z,20.9
2017-10-03T05:03:22.119Z,20.9
2017-10-03T05:04:30.220Z,20.9
2017-10-03T05:05:38.306Z,20.9
2017-10-03T05:06:46.391Z,20.9
2017-10-03T05:07:54.480Z,21.0
2017-10-03T05:09:02.566Z,20.9
2017-10-03T05:10:10.650Z,20.9
2017-10-03T05:11:18.736Z,20.9
2017-10-03T05:12:26.829Z,20.9
2017-10-03T05:13:34.916Z,20.9
2017-10-03T05:14:43.004Z,20.9
2017-10-03T05:15:51.093Z,20.9
2017-10-03T05:16:59.180Z,20.9
2017-10-03T05:18:07.282Z,20.9
2017-10-03T05:19:15.361Z,20.9
2017-10-03T05:20:23.446Z,20.9
2017-10-03T05:21:31.542Z,20.9
2017-10-03T05:22:39.620Z,21.0
2017-10-03T05:23:47.729Z,20.9
2017-10-03T05:24:55.793Z,20.9
2017-10-03T05:26:03.880Z,20.9
2017-10-03T05:27:11.967Z,20.9
2017-10-03T05:28:20.051Z,20.9
2017-10-03T05:29:28.142Z,20.9
2017-10-03T05:30:36.223Z,20.9
2017-10-03T05:31:44.311Z,20.9
2017-10-03T05:32:52.396Z,20.9
2017-10-03T05:34:00.486Z,20.9
2017-10-03T05:35:08.570Z,20.9
2017-10-03T05:36:16.656Z,20.9
2017-10-03T05:37:24.766Z,20.9
2017-10-03T05:38:32.854Z,20.8
2017-10-03T05:39:40.939Z,20.9
2017-10-03T05:40:49.023Z,20.9
2017-10-03T05:41:57.120Z,20.9
2017-10-03T05:43:05.205Z,20.9
2017-10-03T05:44:13.292Z,20.8
2017-10-03T05:45:21.401Z,20.8
2017-10-03T05:46:29.488Z,20.9
2017-10-03T05:47:37.572Z,20.8
2017-10-03T05:48:45.731Z,20.9
2017-10-03T05:49:53.946Z,20.8
2017-10-03T05:51:02.035Z,20.9
2017-10-03T05:52:10.122Z,20.7
2017-10-03T05:53:18.208Z,20.8
2017-10-03T05:54:26.294Z,20.9
2017-10-03T05:55:34.382Z,20.9
2017-10-03T05:56:42.465Z,20.9
2017-10-03T05:57:50.551Z,20.8
2017-10-03T05:58:58.663Z,20.9
2017-10-03T06:00:07.066Z,20.8
2017-10-03T06:01:15.131Z,20.8
2017-10-03T06:02:23.216Z,20.8
2017-10-03T06:03:31.721Z,20.8
2017-10-03T06:04:39.389Z,20.8
2017-10-03T06:05:48.011Z,20.8
2017-10-03T06:06:55.564Z,20.8
2017-10-03T06:08:03.649Z,20.8
2017-10-03T06:09:11.740Z,20.8
2017-10-03T06:10:19.825Z,20.8
2017-10-03T06:11:27.931Z,20.8
2017-10-03T06:12:36.003Z,20.8
2017-10-03T06:13:44.084Z,20.8
2017-10-03T06:14:52.178Z,20.7
2017-10-03T06:16:00.287Z,20.8
2017-10-03T06:17:08.351Z,20.8
2017-10-03T06:18:16.446Z,20.8
2017-10-03T06:19:24.531Z,20.8
2017-10-03T06:20:32.623Z,20.8
2017-10-03T06:21:40.709Z,20.8
2017-10-03T06:22:48.799Z,20.8
2017-10-03T06:23:56.898Z,20.7
2017-10-03T06:25:04.986Z,20.8
2017-10-03T06:26:13.073Z,20.8
2017-10-03T06:27:21.163Z,20.8
2017-10-03T06:28:29.245Z,20.7
2017-10-03T06:29:37.329Z,20.8
2017-10-03T06:30:45.418Z,20.8
2017-10-03T06:31:53.504Z,20.7
2017-10-03T06:33:01.588Z,20.7
2017-10-03T06:34:09.676Z,20.7
2017-10-03T06:35:17.761Z,20.7
2017-10-03T06:36:25.848Z,20.7
2017-10-03T06:37:33.939Z,20.8
2017-10-03T06:38:42.022Z,20.7
2017-10-03T06:39:50.104Z,20.7
2017-10-03T06:40:58.220Z,20.7
2017-10-03T06:42:06.282Z,20.7
2017-10-03T06:43:14.365Z,20.7
2017-10-03T06:44:22.451Z,20.6
2017-10-03T06:45:30.541Z,20.7
2017-10-03T06:46:38.627Z,20.7
2017-10-03T06:47:46.738Z,20.7
2017-10-03T06:48:54.803Z,20.7
2017-10-03T06:50:03.192Z,20.6
2017-10-03T06:51:11.102Z,20.7
2017-10-03T06:52:19.320Z,20.7
2017-10-03T06:53:27.149Z,20.7
2017-10-03T06:54:35.580Z,20.7
2017-10-03T06:55:43.682Z,20.7
2017-10-03T06:56:51.417Z,20.7
2017-10-03T06:57:59.505Z,20.7
2017-10-03T06:59:07.590Z,20.7
2017-10-03T07:00:15.678Z,20.7
2017-10-03T07:01:23.778Z,20.7
2017-10-03T07:02:31.859Z,20.7
2017-10-03T07:03:39.943Z,20.7
2017-10-03T07:04:48.310Z,20.7
2017-10-03T07:05:56.118Z,20.6
2017-10-03T07:07:04.204Z,20.6
2017-10-03T07:08:12.289Z,20.7
2017-10-03T07:09:20.376Z,20.7
2017-10-03T07:10:28.462Z,20.7
2017-10-03T07:11:36.548Z,20.7
2017-10-03T07:12:44.633Z,20.6
2017-10-03T07:13:53.080Z,20.7
2017-10-03T07:15:00.799Z,20.7
2017-10-03T07:16:08.887Z,20.7
2017-10-03T07:17:16.986Z,20.7
2017-10-03T07:18:25.066Z,20.6
2017-10-03T07:19:33.154Z,20.6
2017-10-03T07:20:41.307Z,20.7
2017-10-03T07:21:49.395Z,20.7
2017-10-03T07:22:58.026Z,20.6
2017-10-03T07:24:05.693Z,20.6
2017-10-03T07:25:13.652Z,20.7
2017-10-03T07:26:21.737Z,20.7
2017-10-03T07:27:29.918Z,20.6
2017-10-03T07:28:37.910Z,20.6
2017-10-03T07:29:46.006Z,20.6
2017-10-03T07:30:54.093Z,20.6
2017-10-03T07:32:02.600Z,20.6
2017-10-03T07:33:10.260Z,20.7
2017-10-03T07:34:18.347Z,20.6
2017-10-03T07:35:26.432Z,20.6
2017-10-03T07:36:34.517Z,20.6
2017-10-03T07:37:42.617Z,20.6
2017-10-03T07:38:50.705Z,20.6
2017-10-03T07:39:58.788Z,20.7
2017-10-03T07:41:06.872Z,20.6
2017-10-03T07:42:14.957Z,20.6
2017-10-03T07:43:23.042Z,20.6
2017-10-03T07:44:31.131Z,20.6
2017-10-03T07:45:39.228Z,20.6
2017-10-03T07:46:47.307Z,20.6
2017-10-03T07:47:55.395Z,20.6
2017-10-03T07:49:03.479Z,20.6
2017-10-03T07:50:11.569Z,20.6
2017-10-03T07:51:19.648Z,20.6
2017-10-03T07:52:27.734Z,20.5
2017-10-03T07:53:35.821Z,20.6
2017-10-03T07:54:43.908Z,20.5
2017-10-03T07:55:51.999Z,20.5
2017-10-03T07:57:00.081Z,20.6
2017-10-03T07:58:08.167Z,20.5
2017-10-03T07:59:16.255Z,20.5
2017-10-03T08:00:24.339Z,20.6
2017-10-03T08:01:32.454Z,20.6
2017-10-03T08:02:40.537Z,20.5
2017-10-03T08:03:48.624Z,20.6
2017-10-03T08:04:56.708Z,20.4
2017-10-03T08:06:04.796Z,20.6
2017-10-03T08:07:12.941Z,20.6
2017-10-03T08:08:20.970Z,20.5
2017-10-03T08:09:32.698Z,20.6
2017-10-03T08:10:37.145Z,20.5
2017-10-03T08:11:45.313Z,20.5
2017-10-03T08:12:53.318Z,20.6
2017-10-03T08:14:01.410Z,20.5
2017-10-03T08:15:09.484Z,20.5
2017-10-03T08:16:17.576Z,20.6
2017-10-03T08:17:25.656Z,20.5
2017-10-03T08:18:33.741Z,20.5
2017-10-03T08:19:41.829Z,20.5
2017-10-03T08:20:49.913Z,20.6
2017-10-03T08:21:58.000Z,20.5
2017-10-03T08:23:06.086Z,20.5
2017-10-03T08:24:14.173Z,20.5
2017-10-03T08:25:22.258Z,20.5
2017-10-03T08:26:30.347Z,20.5
2017-10-03T08:27:38.430Z,20.5
2017-10-03T08:28:46.515Z,20.5
2017-10-03T08:29:54.603Z,20.5
2017-10-03T08:31:02.689Z,20.5
2017-10-03T08:32:10.773Z,20.4
2017-10-03T08:33:18.859Z,20.5
2017-10-03T08:34:26.944Z,20.5
2017-10-03T08:35:35.029Z,20.5
2017-10-03T08:36:43.126Z,20.4
2017-10-03T08:37:51.216Z,20.6
2017-10-03T08:38:59.298Z,20.5
2017-10-03T08:40:07.384Z,20.5
2017-10-03T08:41:15.469Z,20.6
2017-10-03T08:42:23.562Z,20.5
2017-10-03T08:43:31.654Z,20.5
2017-10-03T08:44:39.736Z,20.5
2017-10-03T08:45:47.826Z,20.6
2017-10-03T08:46:55.910Z,20.5
2017-10-03T08:48:03.995Z,20.5
2017-10-03T08:49:12.081Z,20.5
2017-10-03T08:50:20.184Z,20.5
2017-10-03T08:51:28.273Z,20.5
2017-10-03T08:52:36.361Z,20.5
2017-10-03T08:53:44.444Z,20.5
2017-10-03T08:54:52.527Z,20.6
2017-10-03T08:56:00.616Z,20.5
2017-10-03T08:57:08.700Z,20.5
2017-10-03T08:58:16.788Z,20.5
2017-10-03T08:59:24.872Z,20.5
2017-10-03T09:00:32.957Z,20.5
2017-10-03T09:01:41.045Z,20.5
2017-10-03T09:02:49.130Z,20.5
2017-10-03T09:03:57.233Z,20.5
2017-10-03T09:05:05.300Z,20.6
2017-10-03T09:06:13.878Z,20.5
2017-10-03T09:07:21.479Z,20.5
2017-10-03T09:08:29.568Z,20.5
2017-10-03T09:09:37.656Z,20.5
2017-10-03T09:10:45.743Z,20.4
2017-10-03T09:11:53.827Z,20.5
2017-10-03T09:13:01.912Z,20.5
2017-10-03T09:14:09.996Z,20.5
2017-10-03T09:15:18.083Z,20.5
2017-10-03T09:16:26.167Z,20.5
2017-10-03T09:17:34.256Z,20.5
2017-10-03T09:18:42.346Z,20.5
2017-10-03T09:19:50.429Z,20.5
2017-10-03T09:20:58.513Z,20.5
2017-10-03T09:22:06.598Z,20.4
2017-10-03T09:23:14.683Z,20.5
2017-10-03T09:24:22.769Z,20.5
2017-10-03T09:25:30.856Z,20.5
2017-10-03T09:26:38.942Z,20.5
2017-10-03T09:27:47.029Z,20.6
2017-10-03T09:28:55.115Z,20.5
2017-10-03T09:30:03.209Z,20.5
2017-10-03T09:31:11.286Z,20.5
2017-10-03T09:32:19.371Z,20.5
2017-10-03T09:33:27.454Z,20.5
2017-10-03T09:34:35.545Z,20.5
2017-10-03T09:35:43.627Z,20.5
2017-10-03T09:36:51.712Z,20.5
2017-10-03T09:37:59.801Z,20.5
2017-10-03T09:39:07.886Z,20.5
2017-10-03T09:40:15.973Z,20.5
2017-10-03T09:41:24.148Z,20.5
2017-10-03T09:42:32.145Z,20.5
2017-10-03T09:43:40.229Z,20.5
2017-10-03T09:44:48.319Z,20.5
2017-10-03T09:45:56.412Z,20.6
2017-10-03T09:47:04.498Z,20.5
2017-10-03T09:48:12.584Z,20.5
2017-10-03T09:49:20.669Z,20.5
2017-10-03T09:50:28.774Z,20.4
2017-10-03T09:51:36.843Z,20.5
2017-10-03T09:52:44.926Z,20.5
2017-10-03T09:53:53.015Z,20.5
2017-10-03T09:55:01.100Z,20.5
2017-10-03T09:56:09.187Z,20.4
2017-10-03T09:57:17.275Z,20.4
2017-10-03T09:58:25.360Z,20.5
2017-10-03T09:59:33.444Z,20.5
2017-10-03T10:00:41.530Z,20.5
2017-10-03T10:01:49.616Z,20.5
2017-10-03T10:02:57.703Z,20.5
2017-10-03T10:04:05.788Z,20.5
2017-10-03T10:05:13.874Z,20.5
2017-10-03T10:06:21.978Z,20.4
2017-10-03T10:07:30.048Z,20.5
2017-10-03T10:08:38.130Z,20.6
2017-10-03T10:09:46.217Z,20.6
2017-10-03T10:10:54.303Z,20.5
2017-10-03T10:12:02.386Z,20.5
2017-10-03T10:13:10.474Z,20.5
2017-10-03T10:14:18.559Z,20.5
2017-10-03T10:15:26.656Z,20.5
2017-10-03T10:16:34.744Z,20.4
2017-10-03T10:17:42.840Z,20.5
2017-10-03T10:18:50.919Z,20.5
2017-10-03T10:19:59.007Z,20.5
2017-10-03T10:21:07.097Z,20.5
2017-10-03T10:22:15.179Z,20.5
2017-10-03T10:23:23.277Z,20.4
2017-10-03T10:24:31.360Z,20.5
2017-10-03T10:25:39.445Z,20.5
2017-10-03T10:26:47.533Z,20.5
2017-10-03T10:27:55.645Z,20.5
2017-10-03T10:29:03.709Z,20.4
2017-10-03T10:30:11.795Z,20.4
2017-10-03T10:31:19.883Z,20.4
2017-10-03T10:32:27.970Z,20.5
2017-10-03T10:33:36.056Z,20.5
2017-10-03T10:34:44.142Z,20.5
2017-10-03T10:35:52.226Z,20.5
2017-10-03T10:37:00.334Z,20.5
2017-10-03T10:38:08.439Z,20.5
2017-10-03T10:39:16.527Z,20.6
2017-10-03T10:40:24.610Z,20.5
2017-10-03T10:41:32.706Z,20.5
2017-10-03T10:42:40.785Z,20.5
2017-10-03T10:43:48.871Z,20.5
2017-10-03T10:44:56.957Z,20.5
2017-10-03T10:46:05.044Z,20.5
2017-10-03T10:47:13.154Z,20.6
2017-10-03T10:48:21.221Z,20.5
2017-10-03T10:49:29.353Z,20.5
2017-10-03T10:50:37.524Z,20.6
2017-10-03T10:51:45.524Z,20.5
2017-10-03T10:52:53.610Z,20.5
2017-10-03T10:54:01.698Z,20.5
2017-10-03T10:55:09.784Z,20.5
2017-10-03T10:56:17.869Z,20.7
2017-10-03T10:57:26.148Z,20.6
2017-10-03T10:58:34.234Z,20.6
2017-10-03T10:59:42.321Z,20.6
2017-10-03T11:00:50.413Z,20.6
2017-10-03T11:01:58.492Z,20.6
2017-10-03T11:03:06.583Z,20.6
2017-10-03T11:04:14.668Z,20.6
2017-10-03T11:05:22.750Z,20.6
2017-10-03T11:06:30.834Z,20.6
2017-10-03T11:07:38.924Z,20.6
2017-10-03T11:08:47.008Z,20.7
2017-10-03T11:09:55.095Z,20.6
2017-10-03T11:11:03.181Z,20.6
2017-10-03T11:12:11.268Z,20.7
2017-10-03T11:13:19.355Z,20.6
2017-10-03T11:14:27.440Z,20.7
2017-10-03T11:15:35.525Z,20.6
2017-10-03T11:16:43.612Z,20.6
2017-10-03T11:17:51.702Z,20.6
2017-10-03T11:18:59.782Z,20.7
2017-10-03T11:20:07.869Z,20.7
2017-10-03T11:21:15.967Z,20.7
2017-10-03T11:22:24.049Z,20.7
2017-10-03T11:23:32.146Z,20.7
2017-10-03T11:24:40.232Z,20.7
2017-10-03T11:25:48.320Z,20.7
2017-10-03T11:26:56.502Z,20.7
2017-10-03T11:28:04.491Z,20.7
2017-10-03T11:29:12.577Z,20.7
2017-10-03T11:30:20.662Z,20.7
2017-10-03T11:31:28.747Z,20.8
2017-10-03T11:32:36.835Z,20.7
2017-10-03T11:33:44.927Z,20.7
2017-10-03T11:34:53.036Z,20.7
2017-10-03T11:36:01.117Z,20.7
2017-10-03T11:37:09.209Z,20.7
2017-10-03T11:38:17.292Z,20.7
2017-10-03T11:39:25.397Z,20.6
2017-10-03T11:40:33.465Z,20.7
2017-10-03T11:41:41.550Z,20.7
2017-10-03T11:42:49.639Z,20.7
2017-10-03T11:43:57.725Z,20.7
2017-10-03T11:45:05.815Z,20.7
2017-10-03T11:46:13.902Z,20.7
2017-10-03T11:47:21.992Z,20.7
2017-10-03T11:48:30.079Z,20.7
2017-10-03T11:49:38.162Z,20.7
2017-10-03T11:50:46.250Z,20.7
2017-10-03T11:51:54.337Z,20.7
2017-10-03T11:53:02.597Z,20.6
2017-10-03T11:54:10.510Z,20.7
2017-10-03T11:55:18.638Z,20.7
2017-10-03T11:56:26.689Z,20.7
2017-10-03T11:57:34.765Z,20.7
2017-10-03T11:58:42.853Z,20.7
2017-10-03T11:59:50.952Z,20.7
2017-10-03T12:00:59.025Z,20.7
2017-10-03T12:02:07.117Z,20.7
2017-10-03T12:03:15.200Z,20.7
2017-10-03T12:04:23.277Z,20.7
2017-10-03T12:05:31.742Z,20.7
2017-10-03T12:06:39.826Z,20.7
2017-10-03T12:07:47.917Z,20.8
2017-10-03T12:08:55.999Z,20.7
2017-10-03T12:10:04.087Z,20.7
2017-10-03T12:11:12.171Z,20.8
2017-10-03T12:12:20.259Z,20.7
2017-10-03T12:13:28.346Z,20.7
2017-10-03T12:14:36.439Z,20.7
2017-10-03T12:15:44.516Z,20.7
2017-10-03T12:16:52.603Z,20.7
2017-10-03T12:18:00.697Z,20.7
2017-10-03T12:19:08.784Z,20.7
2017-10-03T12:20:16.870Z,20.7
2017-10-03T12:21:24.958Z,20.8
2017-10-03T12:22:33.041Z,20.8
2017-10-03T12:23:41.128Z,20.7
2017-10-03T12:24:49.215Z,20.7
2017-10-03T12:25:57.310Z,20.7
2017-10-03T12:27:05.407Z,20.7
2017-10-03T12:28:13.491Z,20.7
2017-10-03T12:29:21.577Z,20.7
2017-10-03T12:30:29.664Z,20.7
2017-10-03T12:31:37.754Z,20.7
2017-10-03T12:32:45.846Z,20.7
2017-10-03T12:33:53.933Z,20.7
2017-10-03T12:35:02.020Z,20.6
2017-10-03T12:36:10.102Z,20.7
2017-10-03T12:37:18.191Z,20.7
2017-10-03T12:38:26.277Z,20.6
2017-10-03T12:39:34.361Z,20.7
2017-10-03T12:40:42.460Z,20.7
2017-10-03T12:41:50.549Z,20.7
2017-10-03T12:42:58.632Z,20.7
2017-10-03T12:44:06.718Z,20.6
2017-10-03T12:45:14.822Z,20.7
2017-10-03T12:46:22.888Z,20.7
2017-10-03T12:47:30.976Z,20.7
2017-10-03T12:48:39.063Z,20.7
2017-10-03T12:49:47.152Z,20.7
2017-10-03T12:50:55.238Z,20.8
2017-10-03T12:52:03.323Z,20.7
2017-10-03T12:53:11.412Z,20.7
2017-10-03T12:54:19.529Z,20.7
2017-10-03T12:55:27.610Z,20.7
2017-10-03T12:56:35.688Z,20.7
2017-10-03T12:57:43.774Z,20.7
2017-10-03T12:58:51.861Z,20.7
2017-10-03T12:59:59.948Z,20.7
2017-10-03T13:01:08.036Z,20.7
2017-10-03T13:02:16.121Z,20.7
2017-10-03T13:03:24.206Z,20.7
2017-10-03T13:04:32.299Z,20.7
2017-10-03T13:05:40.379Z,20.7
2017-10-03T13:06:48.466Z,20.7
2017-10-03T13:07:56.554Z,20.7
2017-10-03T13:09:04.646Z,20.7
2017-10-03T13:10:12.726Z,20.7
2017-10-03T13:11:20.812Z,20.7
2017-10-03T13:12:28.897Z,20.7
2017-10-03T13:13:36.985Z,20.6
2017-10-03T13:14:45.072Z,20.7
2017-10-03T13:15:53.159Z,20.8
2017-10-03T13:17:01.247Z,20.7
2017-10-03T13:18:09.331Z,20.7
2017-10-03T13:19:17.440Z,20.7
2017-10-03T13:20:25.555Z,20.8
2017-10-03T13:21:33.624Z,20.7
2017-10-03T13:22:41.711Z,20.7
2017-10-03T13:23:49.795Z,20.7
2017-10-03T13:24:57.881Z,20.7
2017-10-03T13:26:05.967Z,20.7
2017-10-03T13:27:14.055Z,20.6
2017-10-03T13:28:22.148Z,20.7
2017-10-03T13:29:30.312Z,20.8
2017-10-03T13:30:38.320Z,20.7
2017-10-03T13:31:46.417Z,20.7
2017-10-03T13:32:54.495Z,20.7
2017-10-03T13:34:02.601Z,20.7
2017-10-03T13:35:10.673Z,20.7
2017-10-03T13:36:18.769Z,20.7
2017-10-03T13:37:26.853Z,20.7
2017-10-03T13:38:34.935Z,20.7
2017-10-03T13:39:43.046Z,20.7
2017-10-03T13:40:51.110Z,20.7
2017-10-03T13:41:59.196Z,20.7
2017-10-03T13:43:07.288Z,20.7
2017-10-03T13:44:15.373Z,20.7
2017-10-03T13:45:23.457Z,20.7
2017-10-03T13:46:31.547Z,20.7
2017-10-03T13:47:39.630Z,20.7
2017-10-03T13:48:47.714Z,20.7
2017-10-03T13:49:55.800Z,20.7
2017-10-03T13:51:03.888Z,20.7
2017-10-03T13:52:11.972Z,20.7
2017-10-03T13:53:20.061Z,20.7
2017-10-03T13:54:28.178Z,20.8
2017-10-03T13:55:36.298Z,20.7
2017-10-03T13:56:44.353Z,20.7
2017-10-03T13:57:52.439Z,20.7
2017-10-03T13:59:00.527Z,20.7
2017-10-03T14:00:08.618Z,20.7
2017-10-03T14:01:16.707Z,20.7
2017-10-03T14:02:24.806Z,20.8
2017-10-03T14:03:32.892Z,20.8
2017-10-03T14:04:40.978Z,20.7
2017-10-03T14:05:49.061Z,20.7
2017-10-03T14:06:57.147Z,20.7
2017-10-03T14:08:05.234Z,20.9
2017-10-03T14:09:13.323Z,20.8
2017-10-03T14:10:21.411Z,20.7
2017-10-03T14:11:29.497Z,20.8
2017-10-03T14:12:37.583Z,20.8
2017-10-03T14:13:45.670Z,20.8
2017-10-03T14:14:53.753Z,20.7
2017-10-03T14:16:01.839Z,20.8
2017-10-03T14:17:09.929Z,20.8
2017-10-03T14:18:18.013Z,20.8
2017-10-03T14:19:26.101Z,20.9
2017-10-03T14:20:34.191Z,20.8
2017-10-03T14:21:42.273Z,20.8
2017-10-03T14:22:50.362Z,20.8
2017-10-03T14:23:58.447Z,20.8
2017-10-03T14:25:06.531Z,20.8
2017-10-03T14:26:14.619Z,20.8
2017-10-03T14:27:22.705Z,20.9
2017-10-03T14:28:30.792Z,20.8
2017-10-03T14:29:38.877Z,20.8
2017-10-03T14:30:46.965Z,20.8
2017-10-03T14:31:55.051Z,20.8
2017-10-03T14:33:03.138Z,20.8
2017-10-03T14:34:11.233Z,20.8
2017-10-03T14:35:19.311Z,20.8
2017-10-03T14:36:27.396Z,20.8
2017-10-03T14:37:35.484Z,20.8
2017-10-03T14:38:43.570Z,20.8
2017-10-03T14:39:51.656Z,20.8
2017-10-03T14:40:59.743Z,20.8
2017-10-03T14:42:07.833Z,20.9
2017-10-03T14:43:15.920Z,20.8
2017-10-03T14:44:24.013Z,20.8
2017-10-03T14:45:32.095Z,20.8
2017-10-03T14:46:40.184Z,20.8
2017-10-03T14:47:48.271Z,20.9
2017-10-03T14:48:56.358Z,20.8
2017-10-03T14:50:04.445Z,20.8
2017-10-03T14:51:12.533Z,20.9
2017-10-03T14:52:20.619Z,20.8
2017-10-03T14:53:28.701Z,20.8
2017-10-03T14:54:36.791Z,20.8
2017-10-03T14:55:44.875Z,20.8
2017-10-03T14:56:52.964Z,20.8
2017-10-03T14:58:01.051Z,20.8
2017-10-03T14:59:09.137Z,20.9
2017-10-03T15:00:17.224Z,20.9
2017-10-03T15:01:25.311Z,20.8
2017-10-03T15:02:33.395Z,20.8
2017-10-03T15:03:41.482Z,20.9
2017-10-03T15:04:49.573Z,20.8
2017-10-03T15:05:57.666Z,20.8